Freeman, MO (64746)

1:25 AM CDT on August 31, 2016 (GMT -0500)
Cass County, Freeman | | Change Station

Elev 961 ft 38.59 °N, 94.52 °W | Updated 2 seconds ago

Mostly Cloudy
Mostly Cloudy
70.3 °F
Feels Like 70.3 °F
N
0.0
Wind Variable Wind from SW
Gusts 0.0 mph

Today
High -- | Low -- °F
--% Chance of Precip.
Yesterday
High -- | Low -- °F
Precip. -- in
Pressure 30.11 in
Visibility 10.0 miles
Clouds Mostly Cloudy 7500 ft
Dew Point 70 °F
Humidity 99%
Rainfall 0.00 in
Snow Depth Not available.
6:46 AM 7:48 PM
Waning Crescent, 1% visible
METAR KOJC 310553Z AUTO 00000KT 10SM BKN075 22/21 A3014 RMK AO2 SLP194 60013 T02220211 10261 20217 403060200 51008
Pressure 30.11 in
Visibility 10.0 miles
Clouds Mostly Cloudy 7500 ft
Dew Point 70 °F
Humidity 99%
Rainfall 0.00 in
Snow Depth Not available.
6:46 AM 7:48 PM
Waning Crescent, 1% visible
METAR KOJC 310553Z AUTO 00000KT 10SM BKN075 22/21 A3014 RMK AO2 SLP194 60013 T02220211 10261 20217 403060200 51008

10-Day Weather Forecast

Almanac

Astronomy

Aug. 31, 2016 Rise Set
Actual Time
Civil Twilight
Nautical Twilight
Astronomical Twilight
Moon
Length of Visible Light
Length of Day
Tomorrow will be .
, % of the Moon is Illuminated

Today's Extremes

State Highs State Lows

Community

WunderPhotos

Upload Photos

1,936,040 photos uploaded!

WunderBlog® & News

Nearby

Air Quality

  Air Quality AQ Index Pollutant
Not available.

Snow Depth

Station Depth Elevation

Earthquake Activity

City Distance Mag. Time & Date
Minimum magnitude displayed is 2.5.

Coastal Water Temperatures

Place Temperature

Stations

Nearby Weather Stations

Station Location Temp. Windchill Dew Point Humidity Wind Precip. Elev Updated Type
                   

Watches & Warnings

There are currently no watches in effect.